Time;durP1;ratioP1;P1;durP2;ratioP2;P2;SDS_P1;SDS_P2;PMS_P1;PMS_P2;Temp;Humidity;BMP_temperature;BMP_pressure;BME280_temperature;BME280_humidity;BME280_pressure;Samples;Min_cycle;Max_cycle;Signal;HPM_P1;HPM_P2
2022/02/05 00:01:49;;;;;;;3.53;2.47;;;;;;;1.65;100.00;101384.44;2090545;28;20048;-59
2022/02/05 00:02:46;;;;;;;7.25;3.00;;;;;;;1.71;100.00;101386.16;2090161;28;20025;-59
2022/02/05 00:03:54;;;;;;;6.38;3.03;;;;;;;1.72;100.00;101390.50;2090400;28;20100;-59
2022/02/05 00:04:54;;;;;;;10.30;4.60;;;;;;;1.78;100.00;101390.50;2089647;28;20031;-60
2022/02/05 00:05:58;;;;;;;5.13;2.90;;;;;;;1.79;100.00;101387.06;2089807;28;20056;-60
2022/02/05 00:06:59;;;;;;;5.28;3.00;;;;;;;1.82;100.00;101393.94;2090348;28;20161;-61
2022/02/05 00:09:20;;;;;;;5.10;2.58;;;;;;;1.78;100.00;101390.50;2090281;28;20051;-61
2022/02/05 00:10:44;;;;;;;6.35;3.42;;;;;;;1.76;100.00;101393.91;2090361;28;20032;-60
2022/02/05 00:12:56;;;;;;;8.10;3.13;;;;;;;1.74;100.00;101399.06;2090142;28;20086;-60
2022/02/05 00:14:33;;;;;;;5.13;3.83;;;;;;;1.75;100.00;101398.19;2090504;28;20036;-59
2022/02/05 00:15:46;;;;;;;5.63;2.92;;;;;;;1.78;100.00;101402.50;2090236;28;20025;-60
2022/02/05 00:41:55;;;;;;;8.95;3.60;;;;;;;1.48;100.00;101434.97;2090153;28;20036;-59
2022/02/05 00:42:55;;;;;;;8.65;3.47;;;;;;;1.41;100.00;101434.09;2090179;28;20017;-60
2022/02/05 00:44:00;;;;;;;5.63;3.30;;;;;;;1.35;100.00;101432.34;2089544;28;20074;-60
2022/02/05 00:45:06;;;;;;;3.78;2.50;;;;;;;1.34;100.00;101432.34;2089485;28;20060;-59
2022/02/05 00:46:08;;;;;;;7.70;3.03;;;;;;;1.30;100.00;101433.16;2090096;28;20033;-59
2022/02/05 00:47:08;;;;;;;7.95;3.60;;;;;;;1.24;100.00;101434.00;2089949;28;20143;-60
2022/02/05 00:48:10;;;;;;;6.13;3.33;;;;;;;1.27;100.00;101434.84;2090044;28;20104;-60
2022/02/05 00:49:11;;;;;;;6.05;3.13;;;;;;;1.33;100.00;101433.19;2090115;28;20028;-60
2022/02/05 00:50:18;;;;;;;7.45;3.80;;;;;;;1.32;100.00;101431.44;2090098;28;20025;-60
2022/02/05 00:51:28;;;;;;;5.88;3.67;;;;;;;1.31;100.00;101435.75;2090015;28;20068;-60
2022/02/05 00:52:29;;;;;;;5.95;4.28;;;;;;;1.26;100.00;101438.28;2090096;28;20017;-60
2022/02/05 00:53:33;;;;;;;4.27;3.00;;;;;;;1.26;100.00;101443.44;2090060;28;20031;-60
2022/02/05 00:54:33;;;;;;;6.30;3.08;;;;;;;1.30;100.00;101438.31;2090048;28;20438;-59
2022/02/05 00:55:35;;;;;;;5.03;2.90;;;;;;;1.30;100.00;101444.28;2089979;28;20028;-59
2022/02/05 00:57:47;;;;;;;7.20;3.25;;;;;;;1.27;100.00;101449.44;2090166;28;20516;-60
2022/02/05 00:58:47;;;;;;;5.82;3.03;;;;;;;1.27;100.00;101440.00;2089984;28;20029;-60
2022/02/05 00:59:47;;;;;;;5.23;3.20;;;;;;;1.27;100.00;101445.13;2090041;28;20108;-58
2022/02/05 01:00:48;;;;;;;4.73;2.60;;;;;;;1.32;100.00;101441.72;2090066;28;20048;-59
2022/02/05 01:01:49;;;;;;;8.13;3.20;;;;;;;1.34;100.00;101447.75;2090060;28;20074;-60
2022/02/05 01:02:49;;;;;;;6.85;3.45;;;;;;;1.33;100.00;101443.47;2090029;28;20032;-61
2022/02/05 01:03:49;;;;;;;6.33;4.17;;;;;;;1.35;100.00;101447.78;2089940;28;20535;-60
2022/02/05 01:04:49;;;;;;;5.33;3.40;;;;;;;1.35;100.00;101449.47;2090004;28;20392;-59
2022/02/05 01:05:50;;;;;;;4.63;3.23;;;;;;;1.33;100.00;101451.19;2090045;28;20372;-60
2022/02/05 01:06:50;;;;;;;4.07;3.10;;;;;;;1.31;100.00;101450.31;2090042;28;20040;-59
2022/02/05 01:07:51;;;;;;;4.30;2.70;;;;;;;1.29;100.00;101460.59;2089976;28;20029;-59
2022/02/05 01:08:51;;;;;;;5.97;3.42;;;;;;;1.24;100.00;101455.44;2089901;28;20032;-59
2022/02/05 01:09:51;;;;;;;5.00;3.07;;;;;;;1.25;100.00;101464.84;2089993;28;20056;-60
2022/02/05 01:10:52;;;;;;;6.30;3.03;;;;;;;1.24;100.00;101460.56;2089968;28;20563;-60
2022/02/05 01:11:56;;;;;;;5.65;3.55;;;;;;;1.28;100.00;101467.47;2089980;28;20393;-60
2022/02/05 01:13:04;;;;;;;7.78;3.42;;;;;;;1.33;100.00;101464.91;2089990;28;20029;-60
2022/02/05 01:14:08;;;;;;;11.43;3.58;;;;;;;1.35;100.00;101470.06;2089959;28;20097;-59
2022/02/05 01:15:09;;;;;;;6.43;3.60;;;;;;;1.36;100.00;101464.06;2089930;28;20083;-60
2022/02/05 01:17:11;;;;;;;5.00;2.70;;;;;;;1.36;100.00;101479.47;2089347;28;20045;-60
2022/02/05 01:18:14;;;;;;;7.90;3.17;;;;;;;1.33;100.00;101469.19;2090020;28;20029;-60
2022/02/05 01:21:46;;;;;;;7.03;3.50;;;;;;;1.35;100.00;101482.91;2089837;28;20033;-59
2022/02/05 01:22:47;;;;;;;6.80;3.40;;;;;;;1.35;100.00;101482.91;2090111;28;20032;-60
2022/02/05 01:23:57;;;;;;;10.35;3.92;;;;;;;1.34;100.00;101482.06;2089889;28;20032;-59
2022/02/05 01:24:57;;;;;;;5.80;2.70;;;;;;;1.35;100.00;101488.06;2089307;28;20025;-59
2022/02/05 01:26:08;;;;;;;7.68;3.42;;;;;;;1.38;100.00;101485.50;2089356;28;20025;-60
2022/02/05 01:27:11;;;;;;;6.30;3.00;;;;;;;1.37;100.00;101491.50;2089845;28;20147;-59
2022/02/05 01:28:19;;;;;;;7.07;3.60;;;;;;;1.33;100.00;101484.63;2089875;28;20466;-60
2022/02/05 01:30:27;;;;;;;6.72;3.10;;;;;;;1.43;100.00;101488.97;2089457;28;20039;-60
2022/02/05 01:31:34;;;;;;;8.13;3.90;;;;;;;1.43;100.00;101494.09;2089895;28;20044;-60
2022/02/05 01:32:37;;;;;;;7.40;3.83;;;;;;;1.44;100.00;101498.41;2089905;28;20469;-60
2022/02/05 01:51:03;;;;;;;9.23;3.80;;;;;;;1.22;100.00;101523.97;2091576;28;20041;-60
2022/02/05 01:52:14;;;;;;;5.88;3.67;;;;;;;1.22;100.00;101521.41;2091409;28;20112;-59
2022/02/05 01:56:55;;;;;;;8.05;2.92;;;;;;;1.24;100.00;101522.28;2091516;28;20461;-60
2022/02/05 01:58:13;;;;;;;5.57;3.05;;;;;;;1.29;100.00;101527.44;2091322;28;20059;-60
2022/02/05 01:59:21;;;;;;;9.73;4.43;;;;;;;1.28;100.00;101525.72;2091402;28;20390;-61
2022/02/05 02:05:51;;;;;;;8.95;3.38;;;;;;;1.19;100.00;101526.53;2091382;28;20460;-60
2022/02/05 02:10:36;;;;;;;6.93;3.97;;;;;;;1.25;100.00;101533.41;2091240;28;20427;-60
2022/02/05 02:11:43;;;;;;;5.15;2.83;;;;;;;1.21;100.00;101535.13;2091343;28;20101;-60
2022/02/05 02:12:54;;;;;;;8.07;4.38;;;;;;;1.19;100.00;101531.66;2091318;28;20017;-61
2022/02/05 02:14:16;;;;;;;8.75;3.50;;;;;;;1.15;100.00;101537.63;2091299;28;20033;-60
2022/02/05 02:15:28;;;;;;;5.30;2.80;;;;;;;1.16;100.00;101541.91;2091042;28;20056;-60
2022/02/05 02:21:39;;;;;;;4.65;2.38;;;;;;;1.06;100.00;101550.41;2091188;28;20029;-60
2022/02/05 02:26:01;;;;;;;8.07;3.20;;;;;;;1.05;100.00;101551.25;2091272;28;20170;-60
2022/02/05 02:28:13;;;;;;;6.22;3.35;;;;;;;0.96;100.00;101555.47;2091271;28;20033;-60
2022/02/05 02:29:28;;;;;;;6.13;2.95;;;;;;;0.90;100.00;101556.25;2091161;28;20040;-60
2022/02/05 02:30:34;;;;;;;11.18;2.88;;;;;;;0.85;100.00;101559.63;2091232;28;20508;-60
2022/02/05 02:31:40;;;;;;;6.85;3.28;;;;;;;0.84;100.00;101560.50;2091128;28;20031;-60
2022/02/05 02:32:44;;;;;;;7.45;4.75;;;;;;;0.84;100.00;101552.78;2091165;28;20024;-60
2022/02/05 02:33:49;;;;;;;7.03;3.40;;;;;;;0.88;100.00;101555.41;2091038;28;20494;-60
2022/02/05 02:34:53;;;;;;;8.70;4.63;;;;;;;0.90;100.00;101553.69;2091205;28;20025;-60
2022/02/05 02:35:54;;;;;;;8.60;3.92;;;;;;;0.90;100.00;101551.13;2090447;28;20025;-60
2022/02/05 02:37:00;;;;;;;5.25;2.60;;;;;;;0.89;100.00;101557.13;2090487;28;20375;-60
2022/02/05 02:38:08;;;;;;;5.20;2.80;;;;;;;0.89;100.00;101566.56;2090605;28;20017;-60
2022/02/05 02:39:19;;;;;;;9.70;3.58;;;;;;;0.82;100.00;101570.75;2091056;28;20086;-59
2022/02/05 02:41:13;;;;;;;6.05;3.38;;;;;;;0.82;100.00;101569.91;2091082;28;20521;-59
2022/02/05 02:41:49;;;;;;;8.47;3.73;;;;;;;0.80;100.00;101566.44;2086977;28;20056;-60
2022/02/05 02:42:53;;;;;;;5.47;2.60;;;;;;;0.79;100.00;101575.00;2091046;28;20292;-60
2022/02/05 02:43:53;;;;;;;10.00;3.67;;;;;;;0.76;100.00;101576.69;2091008;28;20024;-59
2022/02/05 02:44:54;;;;;;;6.18;3.42;;;;;;;0.75;100.00;101569.84;2090395;28;20047;-59
2022/02/05 02:45:54;;;;;;;9.87;3.43;;;;;;;0.73;100.00;101575.81;2090317;28;20024;-60
2022/02/05 02:46:54;;;;;;;4.67;3.33;;;;;;;0.80;100.00;101577.59;2090785;28;20086;-59
2022/02/05 02:47:55;;;;;;;6.73;4.17;;;;;;;0.80;100.00;101574.16;2090919;28;20029;-59
2022/02/05 02:48:56;;;;;;;7.90;3.87;;;;;;;0.82;100.00;101573.31;2090270;28;20025;-60
2022/02/05 02:57:30;;;;;;;6.28;3.55;;;;;;;0.78;100.00;101579.28;2090435;28;20029;-60
2022/02/05 02:58:33;;;;;;;6.32;3.33;;;;;;;0.75;100.00;101585.25;2090179;28;20023;-59
2022/02/05 02:59:49;;;;;;;6.43;3.05;;;;;;;0.72;100.00;101585.22;2090378;28;20020;-60
2022/02/05 03:00:55;;;;;;;8.13;3.15;;;;;;;0.69;100.00;101585.22;2090962;28;20028;-60
2022/02/05 03:02:07;;;;;;;6.07;3.38;;;;;;;0.67;100.00;101586.88;2090922;28;20505;-60
2022/02/05 03:03:08;;;;;;;6.88;3.00;;;;;;;0.73;100.00;101588.66;2090848;28;20029;-60
2022/02/05 03:04:08;;;;;;;8.15;3.95;;;;;;;0.77;100.00;101593.84;2090909;28;20099;-59
2022/02/05 03:05:08;;;;;;;9.13;3.13;;;;;;;0.79;100.00;101585.28;2090894;28;20405;-60
2022/02/05 03:06:08;;;;;;;9.50;2.90;;;;;;;0.81;100.00;101588.72;2090927;28;20025;-60
2022/02/05 03:07:09;;;;;;;8.37;3.73;;;;;;;0.86;100.00;101590.50;2090851;28;20405;-59
2022/02/05 03:08:09;;;;;;;9.07;3.40;;;;;;;0.90;100.00;101593.97;2090096;28;20107;-63
2022/02/05 03:09:09;;;;;;;7.27;3.33;;;;;;;0.85;100.00;101587.91;2090199;28;20279;-59
2022/02/05 03:10:10;;;;;;;5.30;3.23;;;;;;;0.80;100.00;101592.16;2090780;28;20040;-60
2022/02/05 03:11:11;;;;;;;5.23;3.33;;;;;;;0.80;100.00;101593.03;2090885;28;20025;-59
2022/02/05 03:12:11;;;;;;;5.53;3.70;;;;;;;0.79;100.00;101593.00;2090804;28;20428;-59
2022/02/05 03:13:11;;;;;;;6.43;3.47;;;;;;;0.79;100.00;101595.56;2090145;28;20025;-59
2022/02/05 03:14:12;;;;;;;4.60;2.43;;;;;;;0.79;100.00;101595.56;2090235;28;20033;-60
2022/02/05 03:15:15;;;;;;;6.57;3.10;;;;;;;0.81;100.00;101596.44;2090711;28;20017;-60
2022/02/05 03:16:22;;;;;;;6.72;3.50;;;;;;;0.82;100.00;101600.75;2090160;28;20033;-60
2022/02/05 03:17:25;;;;;;;7.30;3.33;;;;;;;0.83;100.00;101603.34;2090238;28;20025;-59
2022/02/05 03:18:45;;;;;;;10.82;3.30;;;;;;;0.77;100.00;101608.41;2090793;28;20044;-59
2022/02/05 03:19:48;;;;;;;8.35;4.13;;;;;;;0.74;100.00;101600.66;2090779;28;20099;-60
2022/02/05 03:20:48;;;;;;;6.15;2.92;;;;;;;0.79;100.00;101598.13;2090770;28;20063;-60
2022/02/05 03:21:49;;;;;;;11.80;3.43;;;;;;;0.84;100.00;101604.19;2090774;28;20052;-60
2022/02/05 03:22:49;;;;;;;8.33;3.70;;;;;;;0.82;100.00;101599.03;2090710;28;20037;-59
2022/02/05 03:23:49;;;;;;;4.70;2.60;;;;;;;0.84;100.00;101599.03;2090799;28;20494;-60
2022/02/05 03:24:50;;;;;;;8.13;3.70;;;;;;;0.80;100.00;101599.84;2090842;28;20096;-60
2022/02/05 03:25:51;;;;;;;8.52;3.22;;;;;;;0.75;100.00;101595.53;2090045;28;20838;-61
2022/02/05 03:26:51;;;;;;;4.37;2.80;;;;;;;0.76;100.00;101598.97;2090104;28;20075;-60
2022/02/05 03:27:52;;;;;;;8.15;2.95;;;;;;;0.76;100.00;101604.97;2090650;28;20489;-60
2022/02/05 03:28:52;;;;;;;4.70;3.17;;;;;;;0.75;100.00;101600.66;2090693;28;20048;-60
2022/02/05 03:29:53;;;;;;;7.57;2.60;;;;;;;0.78;100.00;101604.97;2090088;28;20138;-60
2022/02/05 03:30:53;;;;;;;7.60;3.38;;;;;;;0.82;100.00;101608.47;2090121;28;20059;-60
2022/02/05 03:31:53;;;;;;;7.30;3.97;;;;;;;0.79;100.00;101608.41;2090736;28;20028;-59
2022/02/05 03:32:55;;;;;;;5.70;2.67;;;;;;;0.79;100.00;101611.00;2090668;28;20025;-60
2022/02/05 03:33:56;;;;;;;18.65;4.53;;;;;;;0.80;100.00;101612.72;2089914;28;20017;-60
2022/02/05 03:34:56;;;;;;;5.93;2.93;;;;;;;0.80;100.00;101612.72;2090034;28;20385;-59
2022/02/05 03:35:56;;;;;;;6.43;3.10;;;;;;;0.76;100.00;101612.66;2089937;28;20036;-60
2022/02/05 03:36:57;;;;;;;5.87;2.63;;;;;;;0.74;100.00;101619.50;2090073;28;20112;-60
2022/02/05 03:37:57;;;;;;;6.32;3.40;;;;;;;0.70;100.00;101616.88;2090668;28;20491;-60
2022/02/05 03:38:59;;;;;;;5.33;2.50;;;;;;;0.69;100.00;101620.31;2090611;28;20013;-59
2022/02/05 03:39:59;;;;;;;10.75;3.55;;;;;;;0.70;100.00;101616.88;2090640;28;20147;-59
2022/02/05 03:40:59;;;;;;;6.73;3.47;;;;;;;0.67;100.00;101622.84;2090622;28;20078;-60
2022/02/05 03:42:01;;;;;;;5.37;2.40;;;;;;;0.71;100.00;101623.75;2090659;28;20036;-60
2022/02/05 03:43:01;;;;;;;;;;;;;;;0.75;100.00;101630.63;2091047;28;20103;-60
2022/02/05 03:44:02;;;;;;;6.90;2.50;;;;;;;0.77;100.00;101624.69;2090596;28;19908;-60
2022/02/05 03:45:04;;;;;;;10.70;3.15;;;;;;;0.76;100.00;101632.38;2090588;28;20024;-59
2022/02/05 03:46:04;;;;;;;7.30;3.47;;;;;;;0.79;100.00;101627.28;2090524;28;20393;-60
2022/02/05 03:47:05;;;;;;;4.37;2.83;;;;;;;0.75;100.00;101626.38;2090336;28;20053;-60
2022/02/05 03:48:06;;;;;;;8.85;3.90;;;;;;;0.80;100.00;101628.13;2090431;28;20389;-60
2022/02/05 03:49:06;;;;;;;6.30;3.38;;;;;;;0.85;100.00;101626.47;2090567;28;20021;-59
2022/02/05 03:50:07;;;;;;;5.07;3.13;;;;;;;0.91;100.00;101626.53;2090501;28;20086;-59
2022/02/05 03:51:07;;;;;;;6.82;2.85;;;;;;;0.97;100.00;101626.63;2090513;28;20059;-59
2022/02/05 03:52:07;;;;;;;4.40;2.90;;;;;;;1.00;100.00;101629.19;2090555;28;20037;-59
2022/02/05 03:53:08;;;;;;;7.30;2.80;;;;;;;1.01;100.00;101625.78;2090514;28;20029;-60
2022/02/05 03:54:08;;;;;;;8.30;2.73;;;;;;;1.00;100.00;101628.34;2089774;28;20020;-59
2022/02/05 03:55:10;;;;;;;7.47;4.03;;;;;;;0.96;100.00;101630.00;2089951;28;20047;-59
2022/02/05 03:56:10;;;;;;;7.95;3.15;;;;;;;0.93;100.00;101619.72;2089783;28;20117;-60
2022/02/05 03:57:10;;;;;;;5.97;2.93;;;;;;;0.92;100.00;101633.41;2089814;28;20060;-60
2022/02/05 03:58:10;;;;;;;5.23;2.83;;;;;;;0.88;100.00;101622.22;2090422;28;20079;-60
2022/02/05 03:59:11;;;;;;;6.57;3.47;;;;;;;0.89;100.00;101628.25;2090352;28;20048;-60
2022/02/05 04:00:11;;;;;;;8.77;2.97;;;;;;;0.88;100.00;101626.50;2090420;28;20032;-60
2022/02/05 04:01:13;;;;;;;4.05;2.92;;;;;;;0.88;100.00;101631.63;2090392;28;20025;-60
2022/02/05 04:02:13;;;;;;;6.57;3.47;;;;;;;0.88;100.00;101626.50;2089720;28;20029;-59
2022/02/05 04:03:13;;;;;;;8.80;3.43;;;;;;;0.85;100.00;101626.47;2089758;28;20182;-59
2022/02/05 04:04:14;;;;;;;6.07;3.70;;;;;;;0.79;100.00;101627.28;2090369;28;20021;-59
2022/02/05 04:05:15;;;;;;;4.55;2.90;;;;;;;0.77;100.00;101628.97;2090332;28;20104;-60
2022/02/05 04:06:15;;;;;;;10.57;3.53;;;;;;;0.75;100.00;101636.66;2090447;28;20029;-60
2022/02/05 04:07:15;;;;;;;8.40;3.60;;;;;;;0.77;100.00;101631.53;2090454;28;20024;-59
2022/02/05 04:08:16;;;;;;;5.07;2.60;;;;;;;0.85;100.00;101629.91;2090318;28;20116;-59
2022/02/05 04:09:28;;;;;;;9.85;3.65;;;;;;;0.85;100.00;101637.59;2089107;28;20072;-60
2022/02/05 04:10:31;;;;;;;;;;;;;;;0.81;100.00;101624.69;2083288;28;20059;-60
2022/02/05 04:11:36;;;;;;;7.78;2.92;;;;;;;0.77;100.00;101629.84;2089721;28;19916;-60
2022/02/05 04:16:33;;;;;;;9.00;3.78;;;;;;;0.86;100.00;101633.34;2090433;28;20033;-60
2022/02/05 04:17:33;;;;;;;7.47;2.67;;;;;;;0.89;100.00;101635.97;2089679;28;20025;-60
2022/02/05 04:18:35;;;;;;;5.57;3.57;;;;;;;0.89;100.00;101633.38;2081419;28;20014;-59
2022/02/05 04:19:35;;;;;;;7.75;3.42;;;;;;;0.89;100.00;101639.38;2081389;28;20017;-59
2022/02/05 04:20:38;;;;;;;9.63;3.30;;;;;;;0.93;100.00;101636.84;2081368;28;20048;-60
2022/02/05 04:21:39;;;;;;;6.05;2.75;;;;;;;0.94;100.00;101635.97;2089650;28;20025;-59
2022/02/05 04:22:39;;;;;;;6.50;3.07;;;;;;;0.90;100.00;101640.25;2090220;28;20021;-60
2022/02/05 04:23:39;;;;;;;6.37;2.60;;;;;;;0.89;100.00;101641.09;2090215;28;20283;-59
2022/02/05 04:24:40;;;;;;;11.43;3.20;;;;;;;0.90;100.00;101648.78;2090162;28;20393;-59
2022/02/05 04:25:41;;;;;;;6.50;2.40;;;;;;;0.87;100.00;101650.47;2090044;28;20294;-60
2022/02/05 04:26:41;;;;;;;6.28;3.13;;;;;;;0.86;100.00;101644.47;2090178;28;20028;-59
2022/02/05 04:27:41;;;;;;;7.00;2.73;;;;;;;0.88;100.00;101647.06;2090066;28;20449;-59
2022/02/05 04:28:42;;;;;;;5.67;2.87;;;;;;;0.90;100.00;101645.38;2090091;28;20043;-59
2022/02/05 04:29:42;;;;;;;8.55;3.17;;;;;;;0.90;100.00;101650.53;2090095;28;20021;-60
2022/02/05 04:30:43;;;;;;;7.57;3.17;;;;;;;0.95;100.00;101648.84;2089523;28;20020;-59
2022/02/05 04:31:43;;;;;;;3.67;2.60;;;;;;;0.98;100.00;101648.91;2089613;28;20506;-59
2022/02/05 04:32:44;;;;;;;4.60;2.97;;;;;;;1.01;100.00;101653.19;2090209;28;20025;-60
2022/02/05 04:33:44;;;;;;;5.57;3.30;;;;;;;1.01;100.00;101654.06;2089429;28;20687;-59
2022/02/05 04:34:44;;;;;;;6.57;3.03;;;;;;;1.01;100.00;101651.50;2089501;28;20029;-59
2022/02/05 04:35:45;;;;;;;6.83;2.93;;;;;;;1.00;100.00;101652.31;2089492;28;20485;-60
2022/02/05 04:36:45;;;;;;;7.13;2.95;;;;;;;0.97;100.00;101649.75;2090198;28;20362;-59
2022/02/05 04:37:49;;;;;;;7.93;2.93;;;;;;;0.91;100.00;101657.38;2089357;28;20025;-60
2022/02/05 04:38:51;;;;;;;7.10;2.92;;;;;;;0.95;100.00;101653.13;2089516;28;20390;-60
2022/02/05 04:40:06;;;;;;;6.88;2.17;;;;;;;0.98;100.00;101654.03;2090075;28;20057;-61
2022/02/05 04:41:24;;;;;;;6.80;2.85;;;;;;;0.98;100.00;101653.16;2090084;28;20108;-60
2022/02/05 04:42:36;;;;;;;5.43;2.92;;;;;;;0.99;100.00;101650.59;2090051;28;20021;-60
2022/02/05 04:46:16;;;;;;;7.72;3.08;;;;;;;0.99;100.00;101663.47;2090188;28;20040;-59
2022/02/05 04:53:29;;;;;;;5.65;3.03;;;;;;;0.82;100.00;101672.72;2090060;28;20464;-59
2022/02/05 04:59:49;;;;;;;4.95;2.92;;;;;;;0.83;100.00;101665.03;2090160;28;20043;-60
2022/02/05 05:01:50;;;;;;;7.57;3.00;;;;;;;0.86;100.00;101667.59;2090041;28;20029;-60
2022/02/05 05:03:07;;;;;;;7.07;2.80;;;;;;;0.81;100.00;101674.41;2090004;28;20078;-60
2022/02/05 05:04:23;;;;;;;4.88;2.70;;;;;;;0.75;100.00;101676.88;2090000;28;20478;-60
2022/02/05 05:05:43;;;;;;;6.18;2.50;;;;;;;0.69;100.00;101669.13;2089851;28;20086;-59
2022/02/05 05:10:32;;;;;;;6.47;2.97;;;;;;;0.67;100.00;101686.22;2090083;28;20097;-60
2022/02/05 05:19:50;;;;;;;7.13;2.40;;;;;;;0.57;100.00;101698.06;2089910;28;20037;-59
2022/02/05 05:20:50;;;;;;;6.90;2.97;;;;;;;0.59;100.00;101693.84;2090697;28;20029;-59
2022/02/05 05:21:51;;;;;;;10.67;4.83;;;;;;;0.57;100.00;101692.94;2091711;28;20025;-60
2022/02/05 05:22:51;;;;;;;7.33;2.87;;;;;;;0.58;100.00;101692.13;2091708;28;20052;-60
2022/02/05 05:23:51;;;;;;;7.47;2.83;;;;;;;0.55;100.00;101699.78;2091561;28;20025;-60
2022/02/05 05:24:52;;;;;;;6.10;2.73;;;;;;;0.54;100.00;101692.94;2091649;28;20725;-60
2022/02/05 05:25:52;;;;;;;5.13;2.53;;;;;;;0.57;100.00;101696.38;2090970;28;20437;-59
2022/02/05 05:26:53;;;;;;;5.47;2.40;;;;;;;0.63;100.00;101713.59;2090988;28;20033;-59
2022/02/05 05:27:53;;;;;;;4.10;2.88;;;;;;;0.62;100.00;101706.72;2090832;28;20021;-59
2022/02/05 05:28:53;;;;;;;7.17;2.77;;;;;;;0.63;100.00;101704.19;2090911;28;20028;-59
2022/02/05 05:29:54;;;;;;;6.03;2.57;;;;;;;0.64;100.00;101699.88;2091542;28;20056;-59
2022/02/05 05:30:54;;;;;;;9.97;3.33;;;;;;;0.61;100.00;101702.41;2091450;28;20466;-59
2022/02/05 05:31:54;;;;;;;8.27;2.67;;;;;;;0.62;100.00;101701.59;2090860;28;20049;-59
2022/02/05 05:32:54;;;;;;;5.30;2.70;;;;;;;0.60;100.00;101698.13;2091053;28;20478;-59
2022/02/05 05:33:55;;;;;;;6.73;2.90;;;;;;;0.61;100.00;101704.97;2091697;28;20496;-60
2022/02/05 05:34:55;;;;;;;7.13;3.83;;;;;;;0.60;100.00;101704.13;2091587;28;20024;-60
2022/02/05 05:35:55;;;;;;;6.73;2.47;;;;;;;0.63;100.00;101700.75;2091440;28;20043;-59
2022/02/05 05:36:56;;;;;;;7.30;2.93;;;;;;;0.68;100.00;101700.81;2091555;28;20033;-60
2022/02/05 05:37:56;;;;;;;6.50;3.00;;;;;;;0.69;100.00;101707.66;2091574;28;20033;-60
2022/02/05 05:39:01;;;;;;;7.07;2.83;;;;;;;0.68;100.00;101704.22;2091544;28;20104;-61
2022/02/05 05:40:02;;;;;;;8.95;2.97;;;;;;;0.65;100.00;101709.31;2090772;28;20527;-60
2022/02/05 05:41:03;;;;;;;5.78;2.80;;;;;;;0.66;100.00;101698.22;2090945;28;20048;-60
2022/02/05 05:42:07;;;;;;;6.50;2.43;;;;;;;0.66;100.00;101703.34;2091433;28;20083;-59
2022/02/05 05:43:18;;;;;;;9.30;3.30;;;;;;;0.62;100.00;101709.28;2091451;28;20120;-60
2022/02/05 05:44:47;;;;;;;7.60;2.97;;;;;;;0.64;100.00;101705.91;2091464;28;20056;-60
2022/02/05 05:47:03;;;;;;;6.38;2.80;;;;;;;0.71;100.00;101717.13;2091409;28;20066;-60
2022/02/05 05:48:11;;;;;;;6.75;2.55;;;;;;;0.69;100.00;101715.38;2091281;28;20455;-60
2022/02/05 05:49:17;;;;;;;6.00;2.47;;;;;;;0.68;100.00;101722.22;2091368;28;20482;-60
2022/02/05 05:51:38;;;;;;;5.90;2.67;;;;;;;0.77;100.00;101726.59;2091276;28;20037;-59
2022/02/05 05:52:38;;;;;;;9.13;2.72;;;;;;;0.79;100.00;101734.34;2091449;28;20095;-59
2022/02/05 05:53:38;;;;;;;4.53;2.30;;;;;;;0.77;100.00;101735.19;2091391;28;20370;-60
2022/02/05 05:54:39;;;;;;;5.37;2.73;;;;;;;0.79;100.00;101740.34;2091399;28;20057;-60
2022/02/05 05:55:47;;;;;;;8.47;3.07;;;;;;;0.80;100.00;101733.50;2091322;28;20033;-60
2022/02/05 05:56:48;;;;;;;5.90;2.80;;;;;;;0.80;100.00;101738.63;2091365;28;20104;-61
2022/02/05 05:57:48;;;;;;;6.83;2.60;;;;;;;0.83;100.00;101733.53;2091343;28;20136;-60
2022/02/05 05:58:49;;;;;;;4.83;2.73;;;;;;;0.86;100.00;101736.16;2091196;28;20153;-58
2022/02/05 05:59:49;;;;;;;7.47;2.83;;;;;;;0.88;100.00;101730.19;2091264;28;20066;-60
2022/02/05 06:00:50;;;;;;;5.57;3.17;;;;;;;0.90;100.00;101728.47;2091351;28;20035;-60
2022/02/05 06:01:50;;;;;;;6.83;2.90;;;;;;;0.91;100.00;101737.06;2091323;28;20029;-60
2022/02/05 06:02:51;;;;;;;9.10;2.73;;;;;;;0.90;100.00;101737.91;2091297;28;20052;-59
2022/02/05 06:03:51;;;;;;;6.25;2.47;;;;;;;0.88;100.00;101731.88;2091223;28;20108;-59
2022/02/05 06:04:51;;;;;;;8.27;2.50;;;;;;;0.89;100.00;101733.63;2091226;28;20035;-59
2022/02/05 06:05:51;;;;;;;7.10;2.80;;;;;;;0.86;100.00;101736.16;2091324;28;20013;-59
2022/02/05 06:06:52;;;;;;;4.77;3.13;;;;;;;0.84;100.00;101733.56;2091571;28;20435;-59
2022/02/05 06:07:52;;;;;;;5.50;2.67;;;;;;;0.83;100.00;101731.84;2091271;28;20479;-59
2022/02/05 06:08:52;;;;;;;4.63;3.00;;;;;;;0.85;100.00;101739.53;2090625;28;20401;-60
2022/02/05 06:09:52;;;;;;;6.63;4.13;;;;;;;0.87;100.00;101743.88;2090700;28;20029;-60
2022/02/05 06:10:53;;;;;;;9.43;3.33;;;;;;;0.88;100.00;101742.16;2091270;28;20048;-60
2022/02/05 06:11:53;;;;;;;9.53;3.47;;;;;;;0.88;100.00;101747.28;2091144;28;20120;-60
2022/02/05 06:12:53;;;;;;;28.47;4.37;;;;;;;0.89;100.00;101742.19;2090586;28;20017;-60
2022/02/05 06:13:54;;;;;;;9.27;3.40;;;;;;;0.90;100.00;101737.91;2090651;28;20481;-60
2022/02/05 06:14:56;;;;;;;6.80;2.90;;;;;;;0.90;100.00;101738.75;2091252;28;20048;-60
2022/02/05 06:15:58;;;;;;;6.53;2.50;;;;;;;0.93;100.00;101749.94;2091137;28;20482;-60
2022/02/05 06:17:07;;;;;;;7.82;2.90;;;;;;;0.94;100.00;101743.94;2091262;28;20112;-60
2022/02/05 06:18:08;;;;;;;6.07;2.47;;;;;;;0.93;100.00;101743.09;2091238;28;20021;-60
2022/02/05 06:19:09;;;;;;;6.90;2.88;;;;;;;0.95;100.00;101745.66;2091210;28;20094;-60
2022/02/05 06:20:09;;;;;;;5.63;3.17;;;;;;;0.94;100.00;101749.97;2091281;28;20051;-60
2022/02/05 06:21:10;;;;;;;7.95;3.28;;;;;;;0.95;100.00;101743.97;2091205;28;20078;-59
2022/02/05 06:22:10;;;;;;;6.30;2.80;;;;;;;0.94;100.00;101743.94;2091181;28;20036;-60
2022/02/05 06:23:10;;;;;;;6.73;3.83;;;;;;;0.92;100.00;101746.50;2090509;28;20527;-60
2022/02/05 06:24:10;;;;;;;7.67;2.77;;;;;;;0.93;100.00;101748.25;2090608;28;20509;-60
2022/02/05 06:25:11;;;;;;;6.33;2.03;;;;;;;0.93;100.00;101747.38;2090471;28;20453;-60
2022/02/05 06:26:11;;;;;;;9.67;2.70;;;;;;;0.91;100.00;101752.47;2090617;28;20163;-59
2022/02/05 06:27:11;;;;;;;6.73;2.90;;;;;;;0.92;100.00;101748.22;2091066;28;20116;-59
2022/02/05 06:28:14;;;;;;;9.07;3.80;;;;;;;0.89;100.00;101751.63;2091074;28;20032;-61
2022/02/05 06:29:15;;;;;;;5.90;2.83;;;;;;;0.89;100.00;101747.31;2091108;28;20029;-59
2022/02/05 06:30:15;;;;;;;4.37;2.93;;;;;;;0.86;100.00;101749.00;2091193;28;20420;-59
2022/02/05 06:31:15;;;;;;;8.00;3.20;;;;;;;0.83;100.00;101746.38;2091160;28;20021;-59
2022/02/05 06:32:17;;;;;;;7.50;2.70;;;;;;;0.81;100.00;101742.91;2090507;28;20025;-60
2022/02/05 06:33:17;;;;;;;9.95;2.97;;;;;;;0.81;100.00;101750.63;2090929;28;20021;-59
2022/02/05 06:34:18;;;;;;;6.07;2.53;;;;;;;0.81;100.00;101742.91;2091109;28;20116;-60
2022/02/05 06:35:19;;;;;;;5.20;2.43;;;;;;;0.77;100.00;101745.47;2091044;28;20025;-60
2022/02/05 06:36:19;;;;;;;;;;;;;;;0.76;100.00;101746.28;2090735;28;20045;-60
2022/02/05 06:37:20;;;;;;;5.30;2.28;;;;;;;0.76;100.00;101745.44;2090454;28;20358;-60
2022/02/05 06:38:20;;;;;;;8.43;3.00;;;;;;;0.75;100.00;101754.84;2091071;28;20089;-59
2022/02/05 06:39:21;;;;;;;8.57;3.60;;;;;;;0.70;100.00;101747.91;2090930;28;20081;-60
2022/02/05 06:40:21;;;;;;;8.60;2.83;;;;;;;0.70;100.00;101751.38;2091110;28;20023;-60
2022/02/05 06:41:22;;;;;;;6.67;3.27;;;;;;;0.70;100.00;101751.38;2091057;28;20052;-59
2022/02/05 06:42:22;;;;;;;9.33;2.70;;;;;;;0.71;100.00;101753.09;2090383;28;20063;-59
2022/02/05 06:43:22;;;;;;;6.73;3.40;;;;;;;0.71;100.00;101757.34;2090457;28;20469;-60
2022/02/05 06:44:22;;;;;;;5.37;2.53;;;;;;;0.71;100.00;101750.53;2090895;28;20052;-59
2022/02/05 06:45:23;;;;;;;7.23;3.47;;;;;;;0.69;100.00;101759.06;2090942;28;20021;-59
2022/02/05 06:46:23;;;;;;;7.33;2.83;;;;;;;0.69;100.00;101754.78;2091052;28;20478;-59
2022/02/05 06:47:23;;;;;;;6.70;2.27;;;;;;;0.68;100.00;101758.19;2090891;28;20080;-59
2022/02/05 06:48:24;;;;;;;4.50;2.50;;;;;;;0.66;100.00;101759.88;2090852;28;20105;-60